sensor_id;sensor_type;location;lat;lon;timestamp;P1;durP1;ratioP1;P2;durP2;ratioP2
44228;SDS011;29904;51.058;5.378;2022-08-14T00:00:43;4.85;;;2.40;;
44228;SDS011;29904;51.058;5.378;2022-08-14T00:03:25;2.90;;;2.30;;
44228;SDS011;29904;51.058;5.378;2022-08-14T00:05:53;3.40;;;2.53;;
44228;SDS011;29904;51.058;5.378;2022-08-14T00:08:20;3.88;;;2.40;;
44228;SDS011;29904;51.058;5.378;2022-08-14T00:10:46;4.40;;;2.60;;
44228;SDS011;29904;51.058;5.378;2022-08-14T00:13:13;3.38;;;2.58;;
44228;SDS011;29904;51.058;5.378;2022-08-14T00:15:40;3.92;;;2.50;;
44228;SDS011;29904;51.058;5.378;2022-08-14T00:18:08;5.10;;;2.50;;
44228;SDS011;29904;51.058;5.378;2022-08-14T00:20:38;3.50;;;2.40;;
44228;SDS011;29904;51.058;5.378;2022-08-14T00:23:06;5.72;;;2.40;;
44228;SDS011;29904;51.058;5.378;2022-08-14T00:25:33;4.25;;;2.88;;
44228;SDS011;29904;51.058;5.378;2022-08-14T00:28:01;2.72;;;2.25;;
44228;SDS011;29904;51.058;5.378;2022-08-14T00:30:28;4.18;;;2.50;;
44228;SDS011;29904;51.058;5.378;2022-08-14T00:32:54;3.30;;;2.40;;
44228;SDS011;29904;51.058;5.378;2022-08-14T00:35:22;3.88;;;2.60;;
44228;SDS011;29904;51.058;5.378;2022-08-14T00:37:48;2.95;;;2.63;;
44228;SDS011;29904;51.058;5.378;2022-08-14T00:40:14;4.90;;;2.60;;
44228;SDS011;29904;51.058;5.378;2022-08-14T00:42:41;4.05;;;2.78;;
44228;SDS011;29904;51.058;5.378;2022-08-14T00:45:09;3.50;;;2.70;;
44228;SDS011;29904;51.058;5.378;2022-08-14T00:47:36;3.60;;;2.60;;
44228;SDS011;29904;51.058;5.378;2022-08-14T00:50:03;3.47;;;2.60;;
44228;SDS011;29904;51.058;5.378;2022-08-14T00:52:31;3.20;;;2.63;;
44228;SDS011;29904;51.058;5.378;2022-08-14T00:54:58;4.85;;;2.83;;
44228;SDS011;29904;51.058;5.378;2022-08-14T00:57:32;3.00;;;2.60;;
44228;SDS011;29904;51.058;5.378;2022-08-14T00:59:59;5.70;;;2.75;;
44228;SDS011;29904;51.058;5.378;2022-08-14T01:02:25;3.10;;;2.40;;
44228;SDS011;29904;51.058;5.378;2022-08-14T01:04:53;3.92;;;2.85;;
44228;SDS011;29904;51.058;5.378;2022-08-14T01:07:22;3.13;;;2.70;;
44228;SDS011;29904;51.058;5.378;2022-08-14T01:09:49;3.53;;;2.40;;
44228;SDS011;29904;51.058;5.378;2022-08-14T01:12:20;5.88;;;2.92;;
44228;SDS011;29904;51.058;5.378;2022-08-14T01:14:47;2.75;;;2.50;;
44228;SDS011;29904;51.058;5.378;2022-08-14T01:17:20;3.65;;;3.00;;
44228;SDS011;29904;51.058;5.378;2022-08-14T01:19:47;3.77;;;2.50;;
44228;SDS011;29904;51.058;5.378;2022-08-14T01:22:32;3.60;;;2.80;;
44228;SDS011;29904;51.058;5.378;2022-08-14T01:24:58;3.60;;;3.03;;
44228;SDS011;29904;51.058;5.378;2022-08-14T01:27:24;3.15;;;2.50;;
44228;SDS011;29904;51.058;5.378;2022-08-14T01:29:53;3.15;;;2.70;;
44228;SDS011;29904;51.058;5.378;2022-08-14T01:32:22;4.07;;;3.00;;
44228;SDS011;29904;51.058;5.378;2022-08-14T01:34:48;4.18;;;2.60;;
44228;SDS011;29904;51.058;5.378;2022-08-14T01:37:17;3.50;;;2.87;;
44228;SDS011;29904;51.058;5.378;2022-08-14T01:39:47;3.47;;;2.70;;
44228;SDS011;29904;51.058;5.378;2022-08-14T01:42:13;3.08;;;2.72;;
44228;SDS011;29904;51.058;5.378;2022-08-14T01:44:40;3.90;;;2.50;;
44228;SDS011;29904;51.058;5.378;2022-08-14T01:47:07;4.07;;;3.07;;
44228;SDS011;29904;51.058;5.378;2022-08-14T01:49:37;3.87;;;2.93;;
44228;SDS011;29904;51.058;5.378;2022-08-14T01:52:04;6.05;;;2.78;;
44228;SDS011;29904;51.058;5.378;2022-08-14T01:54:33;3.38;;;2.70;;
44228;SDS011;29904;51.058;5.378;2022-08-14T01:56:59;4.50;;;3.00;;
44228;SDS011;29904;51.058;5.378;2022-08-14T01:59:27;3.30;;;2.85;;
44228;SDS011;29904;51.058;5.378;2022-08-14T02:01:59;4.63;;;2.90;;
44228;SDS011;29904;51.058;5.378;2022-08-14T02:04:29;3.53;;;2.73;;
44228;SDS011;29904;51.058;5.378;2022-08-14T02:06:56;4.30;;;2.63;;
44228;SDS011;29904;51.058;5.378;2022-08-14T02:09:22;3.70;;;2.30;;
44228;SDS011;29904;51.058;5.378;2022-08-14T02:11:51;2.90;;;2.33;;
44228;SDS011;29904;51.058;5.378;2022-08-14T02:14:17;3.37;;;2.40;;
44228;SDS011;29904;51.058;5.378;2022-08-14T02:16:46;2.47;;;2.13;;
44228;SDS011;29904;51.058;5.378;2022-08-14T02:19:18;3.10;;;2.67;;
44228;SDS011;29904;51.058;5.378;2022-08-14T02:21:49;2.83;;;2.40;;
44228;SDS011;29904;51.058;5.378;2022-08-14T02:24:17;2.90;;;2.37;;
44228;SDS011;29904;51.058;5.378;2022-08-14T02:26:47;2.40;;;2.20;;
44228;SDS011;29904;51.058;5.378;2022-08-14T02:29:18;3.80;;;2.60;;
44228;SDS011;29904;51.058;5.378;2022-08-14T02:31:51;3.72;;;2.47;;
44228;SDS011;29904;51.058;5.378;2022-08-14T02:34:25;2.75;;;2.30;;
44228;SDS011;29904;51.058;5.378;2022-08-14T02:36:54;3.97;;;2.40;;
44228;SDS011;29904;51.058;5.378;2022-08-14T02:39:26;2.70;;;2.42;;
44228;SDS011;29904;51.058;5.378;2022-08-14T02:41:54;2.83;;;2.30;;
44228;SDS011;29904;51.058;5.378;2022-08-14T02:44:20;3.40;;;2.40;;
44228;SDS011;29904;51.058;5.378;2022-08-14T02:46:49;3.28;;;2.47;;
44228;SDS011;29904;51.058;5.378;2022-08-14T02:49:16;2.70;;;2.40;;
44228;SDS011;29904;51.058;5.378;2022-08-14T02:51:51;5.10;;;2.50;;
44228;SDS011;29904;51.058;5.378;2022-08-14T02:54:18;3.00;;;2.20;;
44228;SDS011;29904;51.058;5.378;2022-08-14T02:56:47;2.40;;;2.10;;
44228;SDS011;29904;51.058;5.378;2022-08-14T02:59:14;3.47;;;2.40;;
44228;SDS011;29904;51.058;5.378;2022-08-14T03:01:41;2.80;;;2.10;;
44228;SDS011;29904;51.058;5.378;2022-08-14T03:04:08;4.70;;;2.30;;
44228;SDS011;29904;51.058;5.378;2022-08-14T03:06:35;3.58;;;2.20;;
44228;SDS011;29904;51.058;5.378;2022-08-14T03:09:04;3.25;;;2.30;;
44228;SDS011;29904;51.058;5.378;2022-08-14T03:11:30;3.40;;;2.20;;
44228;SDS011;29904;51.058;5.378;2022-08-14T03:13:56;4.20;;;2.35;;
44228;SDS011;29904;51.058;5.378;2022-08-14T03:16:23;2.90;;;2.10;;
44228;SDS011;29904;51.058;5.378;2022-08-14T03:18:54;3.05;;;2.15;;
44228;SDS011;29904;51.058;5.378;2022-08-14T03:21:24;3.25;;;2.10;;
44228;SDS011;29904;51.058;5.378;2022-08-14T03:23:55;2.77;;;2.30;;
44228;SDS011;29904;51.058;5.378;2022-08-14T03:26:43;2.78;;;2.20;;
44228;SDS011;29904;51.058;5.378;2022-08-14T03:29:13;2.75;;;2.20;;
44228;SDS011;29904;51.058;5.378;2022-08-14T03:31:40;2.45;;;1.98;;
44228;SDS011;29904;51.058;5.378;2022-08-14T03:34:06;2.63;;;2.10;;
44228;SDS011;29904;51.058;5.378;2022-08-14T03:36:34;3.58;;;2.15;;
44228;SDS011;29904;51.058;5.378;2022-08-14T03:39:01;2.83;;;2.20;;
44228;SDS011;29904;51.058;5.378;2022-08-14T03:41:29;2.70;;;2.30;;
44228;SDS011;29904;51.058;5.378;2022-08-14T03:43:58;3.63;;;2.30;;
44228;SDS011;29904;51.058;5.378;2022-08-14T03:46:26;3.35;;;2.30;;
44228;SDS011;29904;51.058;5.378;2022-08-14T03:49:00;2.45;;;2.20;;
44228;SDS011;29904;51.058;5.378;2022-08-14T03:51:29;3.50;;;2.45;;
44228;SDS011;29904;51.058;5.378;2022-08-14T03:53:57;3.67;;;2.50;;
44228;SDS011;29904;51.058;5.378;2022-08-14T03:56:24;3.40;;;2.37;;
44228;SDS011;29904;51.058;5.378;2022-08-14T03:58:52;2.83;;;2.38;;
44228;SDS011;29904;51.058;5.378;2022-08-14T04:01:20;2.97;;;2.10;;
44228;SDS011;29904;51.058;5.378;2022-08-14T04:03:49;2.87;;;2.10;;
44228;SDS011;29904;51.058;5.378;2022-08-14T04:06:17;3.10;;;2.50;;
44228;SDS011;29904;51.058;5.378;2022-08-14T04:08:44;3.13;;;2.28;;
44228;SDS011;29904;51.058;5.378;2022-08-14T04:11:10;3.70;;;2.47;;
44228;SDS011;29904;51.058;5.378;2022-08-14T04:13:37;3.45;;;2.65;;
44228;SDS011;29904;51.058;5.378;2022-08-14T04:16:09;2.75;;;2.25;;
44228;SDS011;29904;51.058;5.378;2022-08-14T04:18:42;3.40;;;2.30;;
44228;SDS011;29904;51.058;5.378;2022-08-14T04:21:12;3.97;;;2.80;;
44228;SDS011;29904;51.058;5.378;2022-08-14T04:23:38;3.28;;;2.70;;
44228;SDS011;29904;51.058;5.378;2022-08-14T04:26:05;4.80;;;2.53;;
44228;SDS011;29904;51.058;5.378;2022-08-14T04:28:33;4.05;;;2.40;;
44228;SDS011;29904;51.058;5.378;2022-08-14T04:31:00;4.07;;;2.40;;
44228;SDS011;29904;51.058;5.378;2022-08-14T04:33:27;2.88;;;2.20;;
44228;SDS011;29904;51.058;5.378;2022-08-14T04:35:53;2.72;;;2.38;;
44228;SDS011;29904;51.058;5.378;2022-08-14T04:38:20;2.92;;;2.33;;
44228;SDS011;29904;51.058;5.378;2022-08-14T04:41:05;2.50;;;2.30;;
44228;SDS011;29904;51.058;5.378;2022-08-14T04:43:49;2.40;;;2.20;;
44228;SDS011;29904;51.058;5.378;2022-08-14T04:46:16;3.93;;;2.60;;
44228;SDS011;29904;51.058;5.378;2022-08-14T04:48:43;3.50;;;2.50;;
44228;SDS011;29904;51.058;5.378;2022-08-14T04:51:13;2.97;;;2.60;;
44228;SDS011;29904;51.058;5.378;2022-08-14T04:53:41;3.33;;;2.30;;
44228;SDS011;29904;51.058;5.378;2022-08-14T04:56:12;3.83;;;2.30;;
44228;SDS011;29904;51.058;5.378;2022-08-14T04:58:40;2.50;;;2.30;;
44228;SDS011;29904;51.058;5.378;2022-08-14T05:01:09;3.40;;;2.10;;
44228;SDS011;29904;51.058;5.378;2022-08-14T05:03:39;2.53;;;2.33;;
44228;SDS011;29904;51.058;5.378;2022-08-14T05:06:09;3.58;;;2.50;;
44228;SDS011;29904;51.058;5.378;2022-08-14T05:08:36;2.83;;;2.22;;
44228;SDS011;29904;51.058;5.378;2022-08-14T05:11:04;2.80;;;2.10;;
44228;SDS011;29904;51.058;5.378;2022-08-14T05:13:31;2.30;;;2.10;;
44228;SDS011;29904;51.058;5.378;2022-08-14T05:15:58;2.92;;;2.50;;
44228;SDS011;29904;51.058;5.378;2022-08-14T05:18:26;3.75;;;2.50;;
44228;SDS011;29904;51.058;5.378;2022-08-14T05:20:56;2.50;;;2.30;;
44228;SDS011;29904;51.058;5.378;2022-08-14T05:23:26;3.70;;;2.50;;
44228;SDS011;29904;51.058;5.378;2022-08-14T05:25:55;4.35;;;2.30;;
44228;SDS011;29904;51.058;5.378;2022-08-14T05:28:36;4.47;;;2.72;;
44228;SDS011;29904;51.058;5.378;2022-08-14T05:31:03;3.53;;;2.38;;
44228;SDS011;29904;51.058;5.378;2022-08-14T05:33:31;2.60;;;2.40;;
44228;SDS011;29904;51.058;5.378;2022-08-14T05:35:59;4.72;;;2.50;;
44228;SDS011;29904;51.058;5.378;2022-08-14T05:38:27;3.67;;;2.30;;
44228;SDS011;29904;51.058;5.378;2022-08-14T05:40:58;3.58;;;2.50;;
44228;SDS011;29904;51.058;5.378;2022-08-14T05:43:26;3.10;;;2.50;;
44228;SDS011;29904;51.058;5.378;2022-08-14T05:45:53;3.20;;;2.50;;
44228;SDS011;29904;51.058;5.378;2022-08-14T05:48:19;3.27;;;2.50;;
44228;SDS011;29904;51.058;5.378;2022-08-14T05:50:48;3.10;;;2.20;;
44228;SDS011;29904;51.058;5.378;2022-08-14T05:53:13;4.43;;;2.40;;
44228;SDS011;29904;51.058;5.378;2022-08-14T05:55:39;3.67;;;2.53;;
44228;SDS011;29904;51.058;5.378;2022-08-14T05:58:07;4.55;;;2.67;;
44228;SDS011;29904;51.058;5.378;2022-08-14T06:00:37;2.95;;;2.38;;
44228;SDS011;29904;51.058;5.378;2022-08-14T06:03:09;4.68;;;2.72;;
44228;SDS011;29904;51.058;5.378;2022-08-14T06:05:39;2.50;;;2.30;;
44228;SDS011;29904;51.058;5.378;2022-08-14T06:08:05;2.85;;;2.20;;
44228;SDS011;29904;51.058;5.378;2022-08-14T06:10:39;3.20;;;2.70;;
44228;SDS011;29904;51.058;5.378;2022-08-14T06:13:05;3.35;;;2.60;;
44228;SDS011;29904;51.058;5.378;2022-08-14T06:15:31;3.13;;;2.80;;
44228;SDS011;29904;51.058;5.378;2022-08-14T06:17:57;2.57;;;2.37;;
44228;SDS011;29904;51.058;5.378;2022-08-14T06:20:25;2.88;;;2.50;;
44228;SDS011;29904;51.058;5.378;2022-08-14T06:22:51;4.00;;;2.50;;
44228;SDS011;29904;51.058;5.378;2022-08-14T06:25:17;2.87;;;2.57;;
44228;SDS011;29904;51.058;5.378;2022-08-14T06:27:44;2.95;;;2.65;;
44228;SDS011;29904;51.058;5.378;2022-08-14T06:30:12;3.38;;;2.65;;
44228;SDS011;29904;51.058;5.378;2022-08-14T06:32:45;3.17;;;2.88;;
44228;SDS011;29904;51.058;5.378;2022-08-14T06:35:13;3.00;;;2.70;;
44228;SDS011;29904;51.058;5.378;2022-08-14T06:37:53;3.15;;;2.60;;
44228;SDS011;29904;51.058;5.378;2022-08-14T06:40:22;3.30;;;3.00;;
44228;SDS011;29904;51.058;5.378;2022-08-14T06:42:49;3.33;;;2.70;;
44228;SDS011;29904;51.058;5.378;2022-08-14T06:45:15;3.50;;;2.80;;
44228;SDS011;29904;51.058;5.378;2022-08-14T06:47:42;3.03;;;2.70;;
44228;SDS011;29904;51.058;5.378;2022-08-14T06:50:11;3.47;;;2.80;;
44228;SDS011;29904;51.058;5.378;2022-08-14T06:52:39;3.83;;;2.53;;
44228;SDS011;29904;51.058;5.378;2022-08-14T06:55:06;3.20;;;2.90;;
44228;SDS011;29904;51.058;5.378;2022-08-14T06:57:36;3.03;;;2.72;;
44228;SDS011;29904;51.058;5.378;2022-08-14T07:00:11;5.78;;;3.13;;
44228;SDS011;29904;51.058;5.378;2022-08-14T07:02:40;3.63;;;2.80;;
44228;SDS011;29904;51.058;5.378;2022-08-14T07:05:25;3.15;;;2.85;;
44228;SDS011;29904;51.058;5.378;2022-08-14T07:08:12;3.65;;;3.05;;
44228;SDS011;29904;51.058;5.378;2022-08-14T07:10:42;3.23;;;2.80;;
44228;SDS011;29904;51.058;5.378;2022-08-14T07:13:10;3.90;;;3.05;;
44228;SDS011;29904;51.058;5.378;2022-08-14T07:15:38;4.88;;;3.08;;
44228;SDS011;29904;51.058;5.378;2022-08-14T07:18:07;4.30;;;2.72;;
44228;SDS011;29904;51.058;5.378;2022-08-14T07:20:33;4.47;;;2.80;;
44228;SDS011;29904;51.058;5.378;2022-08-14T07:23:00;3.75;;;2.72;;
44228;SDS011;29904;51.058;5.378;2022-08-14T07:25:27;3.67;;;2.80;;
44228;SDS011;29904;51.058;5.378;2022-08-14T07:27:53;4.77;;;2.80;;
44228;SDS011;29904;51.058;5.378;2022-08-14T07:30:19;2.55;;;2.35;;
44228;SDS011;29904;51.058;5.378;2022-08-14T07:32:47;4.72;;;2.65;;
44228;SDS011;29904;51.058;5.378;2022-08-14T07:35:13;2.47;;;2.25;;
44228;SDS011;29904;51.058;5.378;2022-08-14T07:37:39;3.00;;;2.70;;
44228;SDS011;29904;51.058;5.378;2022-08-14T07:40:06;2.97;;;2.67;;
44228;SDS011;29904;51.058;5.378;2022-08-14T07:42:32;3.42;;;2.60;;
44228;SDS011;29904;51.058;5.378;2022-08-14T07:44:58;3.17;;;2.70;;
44228;SDS011;29904;51.058;5.378;2022-08-14T07:47:24;3.25;;;2.80;;
44228;SDS011;29904;51.058;5.378;2022-08-14T07:52:23;3.00;;;2.65;;
44228;SDS011;29904;51.058;5.378;2022-08-14T07:54:49;4.53;;;2.50;;
44228;SDS011;29904;51.058;5.378;2022-08-14T07:57:15;4.03;;;2.70;;
44228;SDS011;29904;51.058;5.378;2022-08-14T07:59:42;3.13;;;2.83;;
44228;SDS011;29904;51.058;5.378;2022-08-14T08:02:08;2.67;;;2.30;;
44228;SDS011;29904;51.058;5.378;2022-08-14T08:04:35;3.70;;;2.67;;
44228;SDS011;29904;51.058;5.378;2022-08-14T08:07:07;3.13;;;2.63;;
44228;SDS011;29904;51.058;5.378;2022-08-14T08:09:32;2.80;;;2.50;;
44228;SDS011;29904;51.058;5.378;2022-08-14T08:12:03;3.85;;;3.35;;
44228;SDS011;29904;51.058;5.378;2022-08-14T08:14:31;5.63;;;3.08;;
44228;SDS011;29904;51.058;5.378;2022-08-14T08:16:58;5.73;;;4.30;;
44228;SDS011;29904;51.058;5.378;2022-08-14T08:19:24;6.03;;;4.97;;
44228;SDS011;29904;51.058;5.378;2022-08-14T08:21:50;6.07;;;4.97;;
44228;SDS011;29904;51.058;5.378;2022-08-14T08:24:19;3.90;;;3.30;;
44228;SDS011;29904;51.058;5.378;2022-08-14T08:26:49;3.10;;;2.78;;
44228;SDS011;29904;51.058;5.378;2022-08-14T08:29:19;5.10;;;4.13;;
44228;SDS011;29904;51.058;5.378;2022-08-14T08:31:48;4.18;;;2.50;;
44228;SDS011;29904;51.058;5.378;2022-08-14T08:34:18;2.60;;;2.40;;
44228;SDS011;29904;51.058;5.378;2022-08-14T08:36:46;3.45;;;2.40;;
44228;SDS011;29904;51.058;5.378;2022-08-14T08:39:14;4.85;;;2.50;;
44228;SDS011;29904;51.058;5.378;2022-08-14T08:41:43;3.83;;;2.78;;
44228;SDS011;29904;51.058;5.378;2022-08-14T08:44:13;3.25;;;2.42;;
44228;SDS011;29904;51.058;5.378;2022-08-14T08:46:42;3.17;;;2.33;;
44228;SDS011;29904;51.058;5.378;2022-08-14T08:49:09;2.67;;;2.20;;
44228;SDS011;29904;51.058;5.378;2022-08-14T08:51:37;3.30;;;2.50;;
44228;SDS011;29904;51.058;5.378;2022-08-14T08:54:14;2.35;;;2.15;;
44228;SDS011;29904;51.058;5.378;2022-08-14T08:56:45;2.67;;;2.47;;
44228;SDS011;29904;51.058;5.378;2022-08-14T08:59:29;2.53;;;2.30;;
44228;SDS011;29904;51.058;5.378;2022-08-14T09:02:01;2.67;;;2.47;;
44228;SDS011;29904;51.058;5.378;2022-08-14T09:04:35;3.13;;;2.50;;
44228;SDS011;29904;51.058;5.378;2022-08-14T09:07:04;2.40;;;2.20;;
44228;SDS011;29904;51.058;5.378;2022-08-14T09:09:32;3.10;;;2.20;;
44228;SDS011;29904;51.058;5.378;2022-08-14T09:11:59;3.55;;;2.30;;
44228;SDS011;29904;51.058;5.378;2022-08-14T09:14:31;2.50;;;2.30;;
44228;SDS011;29904;51.058;5.378;2022-08-14T09:17:00;2.65;;;2.45;;
44228;SDS011;29904;51.058;5.378;2022-08-14T09:19:30;3.20;;;2.47;;
44228;SDS011;29904;51.058;5.378;2022-08-14T09:21:55;4.00;;;2.30;;
44228;SDS011;29904;51.058;5.378;2022-08-14T09:24:23;2.40;;;2.20;;
44228;SDS011;29904;51.058;5.378;2022-08-14T09:26:49;2.83;;;2.20;;
44228;SDS011;29904;51.058;5.378;2022-08-14T09:29:18;3.83;;;2.50;;
44228;SDS011;29904;51.058;5.378;2022-08-14T09:31:47;2.83;;;2.10;;
44228;SDS011;29904;51.058;5.378;2022-08-14T09:34:35;2.53;;;2.15;;
44228;SDS011;29904;51.058;5.378;2022-08-14T09:37:36;3.25;;;2.40;;
44228;SDS011;29904;51.058;5.378;2022-08-14T09:43:26;2.40;;;2.10;;
44228;SDS011;29904;51.058;5.378;2022-08-14T09:46:18;2.57;;;2.00;;
44228;SDS011;29904;51.058;5.378;2022-08-14T09:48:43;2.58;;;1.83;;
44228;SDS011;29904;51.058;5.378;2022-08-14T09:51:21;3.53;;;1.77;;
44228;SDS011;29904;51.058;5.378;2022-08-14T09:53:58;2.23;;;1.80;;
44228;SDS011;29904;51.058;5.378;2022-08-14T09:56:45;2.15;;;1.80;;
44228;SDS011;29904;51.058;5.378;2022-08-14T09:59:16;2.72;;;1.95;;
44228;SDS011;29904;51.058;5.378;2022-08-14T10:01:46;2.45;;;2.05;;
44228;SDS011;29904;51.058;5.378;2022-08-14T10:04:31;3.80;;;2.17;;
44228;SDS011;29904;51.058;5.378;2022-08-14T10:06:57;4.00;;;2.30;;
44228;SDS011;29904;51.058;5.378;2022-08-14T10:09:23;2.42;;;1.90;;
44228;SDS011;29904;51.058;5.378;2022-08-14T10:11:56;2.50;;;1.95;;
44228;SDS011;29904;51.058;5.378;2022-08-14T10:14:24;2.80;;;2.20;;
44228;SDS011;29904;51.058;5.378;2022-08-14T10:16:54;2.88;;;2.13;;
44228;SDS011;29904;51.058;5.378;2022-08-14T10:19:25;2.43;;;1.90;;
44228;SDS011;29904;51.058;5.378;2022-08-14T10:21:59;3.10;;;2.00;;
44228;SDS011;29904;51.058;5.378;2022-08-14T10:24:31;2.47;;;2.20;;
44228;SDS011;29904;51.058;5.378;2022-08-14T10:27:12;2.92;;;2.40;;
44228;SDS011;29904;51.058;5.378;2022-08-14T10:29:41;3.33;;;2.17;;
44228;SDS011;29904;51.058;5.378;2022-08-14T10:32:09;3.30;;;2.58;;
44228;SDS011;29904;51.058;5.378;2022-08-14T10:34:36;4.25;;;3.85;;
44228;SDS011;29904;51.058;5.378;2022-08-14T10:37:06;8.20;;;4.10;;
44228;SDS011;29904;51.058;5.378;2022-08-14T10:39:39;7.20;;;4.30;;
44228;SDS011;29904;51.058;5.378;2022-08-14T10:44:37;6.63;;;5.47;;
44228;SDS011;29904;51.058;5.378;2022-08-14T10:47:11;5.38;;;4.35;;
44228;SDS011;29904;51.058;5.378;2022-08-14T10:49:42;6.07;;;4.00;;
44228;SDS011;29904;51.058;5.378;2022-08-14T10:52:31;4.95;;;3.47;;
44228;SDS011;29904;51.058;5.378;2022-08-14T10:55:06;2.55;;;2.20;;
44228;SDS011;29904;51.058;5.378;2022-08-14T10:57:33;2.22;;;1.90;;
44228;SDS011;29904;51.058;5.378;2022-08-14T11:00:11;2.30;;;2.00;;
44228;SDS011;29904;51.058;5.378;2022-08-14T11:02:40;3.33;;;2.00;;
44228;SDS011;29904;51.058;5.378;2022-08-14T11:05:10;2.70;;;1.90;;
44228;SDS011;29904;51.058;5.378;2022-08-14T11:07:39;5.78;;;2.30;;
44228;SDS011;29904;51.058;5.378;2022-08-14T11:10:24;4.43;;;2.13;;
44228;SDS011;29904;51.058;5.378;2022-08-14T11:13:02;2.20;;;2.00;;
44228;SDS011;29904;51.058;5.378;2022-08-14T11:15:31;3.55;;;2.05;;
44228;SDS011;29904;51.058;5.378;2022-08-14T11:17:57;3.42;;;1.80;;
44228;SDS011;29904;51.058;5.378;2022-08-14T11:20:24;2.53;;;1.90;;
44228;SDS011;29904;51.058;5.378;2022-08-14T11:22:54;3.38;;;1.70;;
44228;SDS011;29904;51.058;5.378;2022-08-14T11:25:22;3.40;;;1.90;;
44228;SDS011;29904;51.058;5.378;2022-08-14T11:27:51;2.25;;;1.60;;
44228;SDS011;29904;51.058;5.378;2022-08-14T11:30:20;1.95;;;1.75;;
44228;SDS011;29904;51.058;5.378;2022-08-14T11:32:48;4.53;;;1.52;;
44228;SDS011;29904;51.058;5.378;2022-08-14T11:35:18;1.83;;;1.60;;
44228;SDS011;29904;51.058;5.378;2022-08-14T11:37:50;1.50;;;1.40;;
44228;SDS011;29904;51.058;5.378;2022-08-14T11:40:17;1.70;;;1.40;;
44228;SDS011;29904;51.058;5.378;2022-08-14T11:42:45;1.95;;;1.58;;
44228;SDS011;29904;51.058;5.378;2022-08-14T11:45:12;2.30;;;2.10;;
44228;SDS011;29904;51.058;5.378;2022-08-14T11:47:40;3.35;;;1.73;;
44228;SDS011;29904;51.058;5.378;2022-08-14T11:50:10;1.92;;;1.60;;
44228;SDS011;29904;51.058;5.378;2022-08-14T11:52:41;1.70;;;1.60;;
44228;SDS011;29904;51.058;5.378;2022-08-14T11:55:11;2.63;;;1.60;;
44228;SDS011;29904;51.058;5.378;2022-08-14T11:57:39;2.72;;;1.70;;
44228;SDS011;29904;51.058;5.378;2022-08-14T12:00:07;1.75;;;1.50;;
44228;SDS011;29904;51.058;5.378;2022-08-14T12:02:36;1.77;;;1.60;;
44228;SDS011;29904;51.058;5.378;2022-08-14T12:05:14;1.92;;;1.50;;
44228;SDS011;29904;51.058;5.378;2022-08-14T12:07:47;3.63;;;1.80;;
44228;SDS011;29904;51.058;5.378;2022-08-14T12:10:16;1.95;;;1.80;;
44228;SDS011;29904;51.058;5.378;2022-08-14T12:12:43;1.90;;;1.70;;
44228;SDS011;29904;51.058;5.378;2022-08-14T12:15:09;3.23;;;1.90;;
44228;SDS011;29904;51.058;5.378;2022-08-14T12:17:43;1.80;;;1.70;;
44228;SDS011;29904;51.058;5.378;2022-08-14T12:20:15;2.57;;;1.80;;
44228;SDS011;29904;51.058;5.378;2022-08-14T12:22:42;2.63;;;2.00;;
44228;SDS011;29904;51.058;5.378;2022-08-14T12:27:46;2.90;;;1.70;;
44228;SDS011;29904;51.058;5.378;2022-08-14T12:30:24;3.45;;;1.67;;
44228;SDS011;29904;51.058;5.378;2022-08-14T12:33:03;2.67;;;2.00;;
44228;SDS011;29904;51.058;5.378;2022-08-14T12:35:42;3.45;;;1.90;;
44228;SDS011;29904;51.058;5.378;2022-08-14T12:38:09;2.00;;;1.80;;
44228;SDS011;29904;51.058;5.378;2022-08-14T12:40:49;2.83;;;1.90;;
44228;SDS011;29904;51.058;5.378;2022-08-14T12:43:16;2.95;;;1.80;;
44228;SDS011;29904;51.058;5.378;2022-08-14T12:46:01;3.10;;;1.80;;
44228;SDS011;29904;51.058;5.378;2022-08-14T12:48:28;2.07;;;1.80;;
44228;SDS011;29904;51.058;5.378;2022-08-14T12:50:55;3.60;;;2.20;;
44228;SDS011;29904;51.058;5.378;2022-08-14T12:53:31;3.25;;;2.10;;
44228;SDS011;29904;51.058;5.378;2022-08-14T12:56:01;2.63;;;1.90;;
44228;SDS011;29904;51.058;5.378;2022-08-14T12:58:27;3.30;;;2.30;;
44228;SDS011;29904;51.058;5.378;2022-08-14T13:00:54;3.40;;;2.10;;
44228;SDS011;29904;51.058;5.378;2022-08-14T13:03:24;2.35;;;2.15;;
44228;SDS011;29904;51.058;5.378;2022-08-14T13:05:51;3.72;;;2.33;;
44228;SDS011;29904;51.058;5.378;2022-08-14T13:08:17;3.13;;;2.20;;
44228;SDS011;29904;51.058;5.378;2022-08-14T13:10:47;2.27;;;2.07;;
44228;SDS011;29904;51.058;5.378;2022-08-14T13:13:15;2.25;;;1.85;;
44228;SDS011;29904;51.058;5.378;2022-08-14T13:15:42;2.55;;;2.10;;
44228;SDS011;29904;51.058;5.378;2022-08-14T13:18:15;1.90;;;1.80;;
44228;SDS011;29904;51.058;5.378;2022-08-14T13:20:42;2.28;;;1.92;;
44228;SDS011;29904;51.058;5.378;2022-08-14T13:23:10;2.10;;;1.90;;
44228;SDS011;29904;51.058;5.378;2022-08-14T13:25:38;2.85;;;2.00;;
44228;SDS011;29904;51.058;5.378;2022-08-14T13:28:07;2.43;;;2.10;;
44228;SDS011;29904;51.058;5.378;2022-08-14T13:30:35;2.55;;;1.95;;
44228;SDS011;29904;51.058;5.378;2022-08-14T13:33:05;2.33;;;1.80;;
44228;SDS011;29904;51.058;5.378;2022-08-14T13:35:31;2.13;;;1.85;;
44228;SDS011;29904;51.058;5.378;2022-08-14T13:37:59;2.40;;;2.00;;
44228;SDS011;29904;51.058;5.378;2022-08-14T13:40:26;2.42;;;2.10;;
44228;SDS011;29904;51.058;5.378;2022-08-14T13:42:53;4.40;;;2.03;;
44228;SDS011;29904;51.058;5.378;2022-08-14T13:45:20;2.97;;;2.10;;
44228;SDS011;29904;51.058;5.378;2022-08-14T13:47:48;2.13;;;1.92;;
44228;SDS011;29904;51.058;5.378;2022-08-14T13:50:16;2.83;;;2.00;;
44228;SDS011;29904;51.058;5.378;2022-08-14T13:52:45;2.80;;;1.90;;
44228;SDS011;29904;51.058;5.378;2022-08-14T13:55:17;2.45;;;1.70;;
44228;SDS011;29904;51.058;5.378;2022-08-14T13:57:49;2.20;;;1.58;;
44228;SDS011;29904;51.058;5.378;2022-08-14T14:00:15;2.50;;;1.70;;
44228;SDS011;29904;51.058;5.378;2022-08-14T14:02:43;1.80;;;1.70;;
44228;SDS011;29904;51.058;5.378;2022-08-14T14:05:14;3.05;;;1.58;;
44228;SDS011;29904;51.058;5.378;2022-08-14T14:07:49;2.80;;;1.70;;
44228;SDS011;29904;51.058;5.378;2022-08-14T14:10:18;2.87;;;1.70;;
44228;SDS011;29904;51.058;5.378;2022-08-14T14:12:46;1.85;;;1.65;;
44228;SDS011;29904;51.058;5.378;2022-08-14T14:15:13;2.35;;;1.80;;
44228;SDS011;29904;51.058;5.378;2022-08-14T14:17:42;4.00;;;1.90;;
44228;SDS011;29904;51.058;5.378;2022-08-14T14:20:12;2.45;;;2.05;;
44228;SDS011;29904;51.058;5.378;2022-08-14T14:22:43;3.47;;;2.00;;
44228;SDS011;29904;51.058;5.378;2022-08-14T14:25:10;2.92;;;2.00;;
44228;SDS011;29904;51.058;5.378;2022-08-14T14:27:38;3.17;;;1.88;;
44228;SDS011;29904;51.058;5.378;2022-08-14T14:30:06;2.13;;;1.93;;
44228;SDS011;29904;51.058;5.378;2022-08-14T14:32:36;2.00;;;1.80;;
44228;SDS011;29904;51.058;5.378;2022-08-14T14:35:08;1.90;;;1.70;;
44228;SDS011;29904;51.058;5.378;2022-08-14T14:37:43;2.13;;;1.67;;
44228;SDS011;29904;51.058;5.378;2022-08-14T14:40:11;1.80;;;1.60;;
44228;SDS011;29904;51.058;5.378;2022-08-14T14:42:46;1.80;;;1.50;;
44228;SDS011;29904;51.058;5.378;2022-08-14T14:45:17;1.95;;;1.67;;
44228;SDS011;29904;51.058;5.378;2022-08-14T14:47:46;1.63;;;1.50;;
44228;SDS011;29904;51.058;5.378;2022-08-14T14:50:15;2.22;;;1.70;;
44228;SDS011;29904;51.058;5.378;2022-08-14T14:52:41;1.77;;;1.67;;
44228;SDS011;29904;51.058;5.378;2022-08-14T14:55:08;2.90;;;1.90;;
44228;SDS011;29904;51.058;5.378;2022-08-14T14:57:36;1.90;;;1.70;;
44228;SDS011;29904;51.058;5.378;2022-08-14T15:00:16;2.10;;;1.70;;
44228;SDS011;29904;51.058;5.378;2022-08-14T15:02:44;2.20;;;1.75;;
44228;SDS011;29904;51.058;5.378;2022-08-14T15:05:13;2.13;;;1.67;;
44228;SDS011;29904;51.058;5.378;2022-08-14T15:07:40;1.90;;;1.48;;
44228;SDS011;29904;51.058;5.378;2022-08-14T15:10:07;2.80;;;1.50;;
44228;SDS011;29904;51.058;5.378;2022-08-14T15:12:34;3.78;;;1.75;;